ENTCENNA

Guest
Details From ENTC - Tromso Langnes
To ENNA - BANAK
Flight Number -
Tags generated
Created
Modified
Stats Distance 127 nm / 236 km
Max Altitude 7,100 ft / 2,164 m
Waypoints 3
Social Downloads 5
Likes 0
Share VATSIM

Download

Looking for another format? Having issues loading an existing format? Contact us
Advertisement - Login to hide

Notes

Basic altitude profile: - Ascent Rate: 2500ft/min - Ascent Speed: 250kts - Cruise Altitude: 35000ft - Cruise Speed: 420kts - Descent Rate: 1500ft/min - Descent Speed: 250kts Options: - Use NATs: yes - Use PACOTS: yes - Use low airways: yes - Use high airways: no

Route

ENTC ATA ENNA

ID Type Via Altitude Latitude Longitude Leg Dist Tot Dist Heading (true) Name
O ENTC APT - 0 ft / 0 m 69.68287˚ 18.91936˚ - 0 nm - Tromso Langnes
ATA VOR - 7,100 ft / 2,164 m 69.97758˚ 23.37182˚ 93 nm 93 nm 77° / 81° ALTA VOR-DME
O ENNA APT - 0 ft / 0 m 70.06881˚ 24.97349˚ 33 nm 127 nm 80° / 81° BANAK

Altitude Profile

Advertisement - Login to hide

ENTC

Details ICAO ENTC (TOS)
Name Tromso Langnes
Region Norway
Timezone Europe/Oslo (UTC+1.0)
Stats Elevation 31 ft / 9 m (AMSL)
Location 69.682866° 18.919363°
Runways 1
Magnetic Variation 8.800° E

METAR

ENTC 171750Z 19010KT 9999 SCT041 M00/M04 Q0998 TEMPO 2000 -SHSN BKN010 RMK WIND 2600FT 22007KT

Decode

TAF

TAF ENTC 171700Z 1718/1818 20012KT 9999 FEW015 BKN030 TEMPO 1718/1803 1500 SHSN VV008

Decode

Departure Runways

ID Width Length Bearing (true) Bearing (mag) Surface Threshold Offset Overrun Length
01 141 ft / 43 m 7,740 ft / 2,359 m 12.19° 3.39° Asphalt 0 ft / 0 m 289 ft / 88 m
19 141 ft / 43 m 7,740 ft / 2,359 m 192.21° 183.41° Asphalt 1,227 ft / 374 m 482 ft / 147 m

ENNA

Details ICAO ENNA (LKL)
Name BANAK
Region Norway
Timezone Unknown (UTC+0.0)
Stats Elevation 25 ft / 8 m (AMSL)
Location 70.068813° 24.973489°
Runways 1
Magnetic Variation 12.393° E

METAR

ENNA 171750Z 18012KT 9999 FEW028 SCT049 BKN064 M09/M13 Q0998 RMK WIND 1800FT 27010KT

Decode

TAF

TAF TAF ENNA 171700Z 1718/1818 18015KT 9999 FEW015 SCT030 TEMPO 1721/1812 18005KT

Decode

Destination Runways

ID Width Length Bearing (true) Bearing (mag) Surface Threshold Offset Overrun Length
17 148 ft / 45 m 9,104 ft / 2,775 m 175.43° 163.04° Asphalt 302 ft / 92 m 0 ft / 0 m
35 148 ft / 45 m 9,104 ft / 2,775 m 355.44° 343.05° Asphalt 302 ft / 92 m 0 ft / 0 m

Approach Navaids

Runway Type Ident Frequency Range Bearing (true) Bearing (mag) Slope Elevation
17 Localiser BK 109.35 MHz 18 nm / 33 km 175.43° 163.04° - 25 ft / 8 m (AMSL)
17 DME BK 109.35 MHz 18 nm / 33 km - - - 55 ft / 17 m (AMSL)
35 Localiser BA 108.30 MHz 18 nm / 33 km 355.43° 343.03° - 25 ft / 8 m (AMSL)
35 Glidescope BA 108.30 MHz 10 nm / 19 km 355.43° 343.04° 3.50° 25 ft / 8 m (AMSL)

Popular Alternatives